Time;durP1;ratioP1;P1;durP2;ratioP2;P2;SDS_P1;SDS_P2;PMS_P1;PMS_P2;Temp;Humidity;BMP_temperature;BMP_pressure;BME280_temperature;BME280_humidity;BME280_pressure;Samples;Min_cycle;Max_cycle;Signal;HPM_P1;HPM_P2
2023/09/21 00:01:19;;;;;;;7.70;4.72;;;;;;;15.81;100.00;99372.38;4965132;28;20078;-73
2023/09/21 00:03:49;;;;;;;6.85;4.03;;;;;;;15.63;100.00;99363.22;4956560;28;20051;-73
2023/09/21 00:06:18;;;;;;;6.18;3.92;;;;;;;15.69;100.00;99378.75;4971796;28;20050;-73
2023/09/21 00:08:48;;;;;;;8.90;4.22;;;;;;;15.66;100.00;99371.00;4967061;28;20049;-74
2023/09/21 00:11:18;;;;;;;7.22;4.15;;;;;;;15.68;100.00;99372.56;4954689;28;20038;-73
2023/09/21 00:13:49;;;;;;;8.73;4.10;;;;;;;15.67;100.00;99370.84;5002377;28;20039;-73
2023/09/21 00:16:19;;;;;;;7.53;4.80;;;;;;;15.65;100.00;99364.81;4984324;28;20486;-73
2023/09/21 00:18:47;;;;;;;6.72;4.20;;;;;;;15.62;100.00;99367.72;4969257;28;20130;-73
2023/09/21 00:21:15;;;;;;;8.65;4.47;;;;;;;15.63;100.00;99363.22;4961036;28;20071;-72
2023/09/21 00:23:47;;;;;;;6.72;4.47;;;;;;;15.59;100.00;99364.47;4967859;28;20787;-73
2023/09/21 00:26:15;;;;;;;7.07;4.40;;;;;;;15.53;100.00;99364.97;4971162;28;20061;-73
2023/09/21 00:28:50;;;;;;;8.60;5.32;;;;;;;15.47;100.00;99358.31;5000189;28;20039;-72
2023/09/21 00:31:18;;;;;;;7.18;4.63;;;;;;;15.45;100.00;99360.25;4960625;28;20086;-72
2023/09/21 00:33:48;;;;;;;6.70;4.15;;;;;;;15.43;100.00;99351.53;4956947;28;20042;-73
2023/09/21 00:36:17;;;;;;;5.13;3.95;;;;;;;15.45;100.00;99349.56;4967031;28;20051;-72
2023/09/21 00:38:46;;;;;;;6.97;4.05;;;;;;;15.40;100.00;99339.31;4982298;28;20051;-76
2023/09/21 00:41:15;;;;;;;6.83;4.63;;;;;;;15.33;100.00;99324.78;4968317;28;20043;-72
2023/09/21 00:43:48;;;;;;;7.70;4.43;;;;;;;15.41;100.00;99340.16;4992956;28;20043;-73
2023/09/21 00:46:17;;;;;;;7.47;4.70;;;;;;;15.44;100.00;99345.22;4974977;28;20077;-73
2023/09/21 00:48:45;;;;;;;8.18;4.55;;;;;;;15.43;100.00;99340.84;4969298;28;20047;-73
2023/09/21 00:51:14;;;;;;;7.10;4.28;;;;;;;15.47;100.00;99350.28;4961170;28;20080;-72
2023/09/21 00:53:44;;;;;;;8.00;4.95;;;;;;;15.50;100.00;99338.53;4975793;28;20038;-73
2023/09/21 00:56:17;;;;;;;9.50;4.40;;;;;;;15.50;100.00;99336.72;4965192;28;20043;-73
2023/09/21 00:58:48;;;;;;;7.40;4.38;;;;;;;15.53;100.00;99328.44;4969448;28;20042;-73
2023/09/21 01:01:19;;;;;;;6.80;4.22;;;;;;;15.56;100.00;99338.06;4963513;28;20050;-73
2023/09/21 01:03:49;;;;;;;7.43;4.28;;;;;;;15.57;100.00;99331.75;4970437;28;20499;-74
2023/09/21 01:06:18;;;;;;;11.88;5.05;;;;;;;15.58;100.00;99331.63;4972366;28;20459;-73
2023/09/21 01:08:49;;;;;;;6.75;4.10;;;;;;;15.55;100.00;99328.31;4983956;28;20046;-73
2023/09/21 01:11:20;;;;;;;6.50;4.40;;;;;;;15.48;100.00;99324.47;4960860;28;20051;-73
2023/09/21 01:13:53;;;;;;;7.93;4.65;;;;;;;15.42;100.00;99325.84;4987080;28;20057;-73
2023/09/21 01:16:24;;;;;;;7.75;4.68;;;;;;;15.39;100.00;99318.94;4953220;28;20516;-72
2023/09/21 01:18:53;;;;;;;6.05;4.10;;;;;;;15.35;100.00;99329.97;4972267;28;20102;-73
2023/09/21 01:21:30;;;;;;;7.68;4.22;;;;;;;15.28;100.00;99331.47;4947065;28;20504;-73
2023/09/21 01:24:00;;;;;;;6.55;4.57;;;;;;;15.27;100.00;99325.28;4984101;28;20392;-72
2023/09/21 01:26:28;;;;;;;7.33;4.50;;;;;;;15.33;100.00;99326.59;4988793;28;20055;-72
2023/09/21 01:28:58;;;;;;;11.05;5.00;;;;;;;15.33;100.00;99323.94;4972420;28;20042;-72
2023/09/21 01:31:26;;;;;;;7.18;4.20;;;;;;;15.26;100.00;99320.94;4964614;28;20074;-72
2023/09/21 01:33:54;;;;;;;7.60;4.35;;;;;;;15.16;100.00;99316.47;4973105;28;20105;-72
2023/09/21 01:36:23;;;;;;;7.88;4.57;;;;;;;15.09;100.00;99319.69;4956978;28;20074;-72
2023/09/21 01:38:52;;;;;;;6.10;4.30;;;;;;;15.04;100.00;99303.19;4969211;28;20447;-72
2023/09/21 01:41:22;;;;;;;5.90;3.95;;;;;;;15.16;100.00;99308.47;4964230;28;20281;-75
2023/09/21 01:43:50;;;;;;;8.13;4.60;;;;;;;15.19;100.00;99317.09;4989186;28;20050;-72
2023/09/21 01:46:22;;;;;;;7.57;3.92;;;;;;;15.19;100.00;99308.22;4984175;28;20061;-72
2023/09/21 01:48:51;;;;;;;5.97;3.92;;;;;;;15.11;100.00;99302.69;4971710;28;20400;-72
2023/09/21 01:51:20;;;;;;;8.18;4.22;;;;;;;15.09;100.00;99308.16;4962934;28;20050;-72
2023/09/21 01:53:49;;;;;;;6.63;4.75;;;;;;;15.03;100.00;99304.16;4956618;28;20053;-72
2023/09/21 01:56:17;;;;;;;7.50;4.35;;;;;;;14.94;100.00;99312.94;4971956;28;20062;-72
2023/09/21 01:58:47;;;;;;;6.97;4.40;;;;;;;14.88;100.00;99308.09;4973861;28;20125;-72
2023/09/21 02:01:16;;;;;;;6.30;4.27;;;;;;;14.80;100.00;99305.19;4978379;28;20049;-72
2023/09/21 02:03:45;;;;;;;6.85;4.30;;;;;;;14.76;100.00;99303.78;4971006;28;21041;-72
2023/09/21 02:06:16;;;;;;;7.90;4.55;;;;;;;14.71;100.00;99305.97;4966173;28;20043;-72
2023/09/21 02:08:44;;;;;;;;;;;;;;;14.70;100.00;99305.09;4985894;28;20042;-72
2023/09/21 02:11:17;;;;;;;7.88;4.60;;;;;;;14.73;100.00;99304.88;4943606;28;19944;-72
2023/09/21 02:13:47;;;;;;;8.43;4.57;;;;;;;14.76;100.00;99303.78;4973455;28;20506;-72
2023/09/21 02:16:15;;;;;;;7.43;5.47;;;;;;;14.70;100.00;99302.44;4988712;28;20051;-72
2023/09/21 02:18:45;;;;;;;6.97;4.68;;;;;;;14.68;100.00;99303.53;4974845;28;20530;-73
2023/09/21 02:21:19;;;;;;;6.32;4.70;;;;;;;14.63;100.00;99295.09;4960124;28;20046;-73
2023/09/21 02:23:49;;;;;;;6.32;4.10;;;;;;;14.63;100.00;99300.41;4957089;28;20039;-73
2023/09/21 02:26:17;;;;;;;7.20;4.65;;;;;;;14.63;100.00;99290.59;4970978;28;20042;-73
2023/09/21 02:28:48;;;;;;;7.07;4.78;;;;;;;14.71;100.00;99293.47;4973313;28;20038;-72
2023/09/21 02:31:16;;;;;;;7.32;4.80;;;;;;;14.76;100.00;99289.59;4966759;28;20043;-74
2023/09/21 02:33:45;;;;;;;9.10;5.30;;;;;;;14.80;100.00;99283.03;4986091;28;20106;-72
2023/09/21 02:36:14;;;;;;;7.10;4.55;;;;;;;14.85;100.00;99286.16;4958275;28;20134;-72
2023/09/21 02:38:42;;;;;;;7.18;4.75;;;;;;;14.85;100.00;99289.69;4973259;28;20046;-72
2023/09/21 02:41:11;;;;;;;7.63;5.10;;;;;;;14.85;100.00;99276.34;4960406;28;20074;-72
2023/09/21 02:43:40;;;;;;;7.30;4.57;;;;;;;14.84;100.00;99266.66;4956146;28;20461;-73
2023/09/21 02:46:10;;;;;;;6.65;4.82;;;;;;;14.86;100.00;99266.53;4970486;28;20043;-73
2023/09/21 02:48:40;;;;;;;6.20;4.47;;;;;;;14.86;100.00;99262.06;4982926;28;20146;-72
2023/09/21 02:51:09;;;;;;;7.78;4.88;;;;;;;14.88;100.00;99270.78;4947050;28;20082;-73
2023/09/21 02:53:38;;;;;;;6.72;4.72;;;;;;;14.95;100.00;99252.47;4981232;28;20764;-72
2023/09/21 02:56:08;;;;;;;8.13;5.35;;;;;;;14.95;100.00;99250.63;4972966;28;20570;-72
2023/09/21 02:58:36;;;;;;;9.98;5.57;;;;;;;14.95;100.00;99255.97;4963436;28;20051;-72
2023/09/21 03:01:05;;;;;;;6.63;4.35;;;;;;;14.92;100.00;99253.56;4963893;28;20402;-72
2023/09/21 03:03:36;;;;;;;;;;;;;;;14.87;100.00;99260.25;4962125;28;20046;-71
2023/09/21 03:06:05;;;;;;;6.70;4.30;;;;;;;14.87;100.00;99266.41;4969218;28;19926;-71
2023/09/21 03:08:33;;;;;;;8.10;4.78;;;;;;;14.90;100.00;99263.50;4984097;28;20047;-72
2023/09/21 03:11:05;;;;;;;7.97;5.15;;;;;;;14.88;100.00;99249.47;4972325;28;20042;-72
2023/09/21 03:13:34;;;;;;;8.18;4.97;;;;;;;14.94;100.00;99248.13;4957419;28;20125;-72
2023/09/21 03:16:06;;;;;;;8.30;5.05;;;;;;;14.97;100.00;99251.34;4970603;28;20057;-73
2023/09/21 03:18:36;;;;;;;7.50;4.97;;;;;;;14.90;100.00;99250.19;4962360;28;20077;-73
2023/09/21 03:21:14;;;;;;;;;;;;;;;14.87;100.00;99246.91;4969859;28;20043;-72
2023/09/21 03:23:45;;;;;;;8.27;4.70;;;;;;;14.85;100.00;99247.03;4953454;28;20462;-72
2023/09/21 03:26:14;;;;;;;6.80;4.70;;;;;;;14.81;100.00;99239.41;4977227;28;20042;-73
2023/09/21 03:28:47;;;;;;;6.82;5.20;;;;;;;14.80;100.00;99233.25;4993513;28;20047;-72
2023/09/21 03:31:15;;;;;;;9.23;5.38;;;;;;;14.82;100.00;99233.97;4963346;28;20043;-72
2023/09/21 03:33:45;;;;;;;9.52;5.47;;;;;;;14.87;100.00;99229.09;4952511;28;20647;-73
2023/09/21 03:36:16;;;;;;;7.10;5.32;;;;;;;14.91;100.00;99229.69;4977405;28;20074;-72
2023/09/21 03:38:47;;;;;;;10.27;5.45;;;;;;;14.98;100.00;99234.38;4978423;28;20047;-72
2023/09/21 03:41:16;;;;;;;6.22;4.97;;;;;;;15.03;100.00;99216.19;4977849;28;20051;-72
2023/09/21 03:43:44;;;;;;;10.95;4.93;;;;;;;15.05;100.00;99229.41;4965750;28;20056;-73
2023/09/21 03:46:12;;;;;;;7.82;4.80;;;;;;;15.03;100.00;99215.34;4973293;28;20054;-73
2023/09/21 03:48:40;;;;;;;9.32;5.53;;;;;;;14.98;100.00;99217.53;4971819;28;20039;-72
2023/09/21 03:51:10;;;;;;;6.65;4.60;;;;;;;14.97;100.00;99216.69;4963792;28;20113;-72
2023/09/21 03:53:40;;;;;;;8.15;5.32;;;;;;;14.98;100.00;99210.38;4960998;28;20043;-72
2023/09/21 03:56:08;;;;;;;6.60;4.95;;;;;;;15.01;100.00;99210.13;4983595;28;20046;-72
2023/09/21 03:58:36;;;;;;;10.05;5.53;;;;;;;14.97;100.00;99192.69;4980121;28;20058;-72
2023/09/21 04:01:07;;;;;;;7.55;5.20;;;;;;;15.03;100.00;99202.00;4965795;28;20045;-72
2023/09/21 04:03:35;;;;;;;5.97;5.13;;;;;;;15.00;100.00;99189.78;4958430;28;20536;-72
2023/09/21 04:06:06;;;;;;;8.02;4.85;;;;;;;14.98;100.00;99198.88;4968271;28;20038;-72
2023/09/21 04:08:35;;;;;;;6.68;4.85;;;;;;;14.96;100.00;99196.34;4968361;28;20051;-72
2023/09/21 04:11:05;;;;;;;8.75;5.18;;;;;;;14.98;100.00;99193.53;4966247;28;20053;-72
2023/09/21 04:13:34;;;;;;;7.90;5.50;;;;;;;14.99;100.00;99189.91;4963876;28;20049;-73
2023/09/21 04:16:06;;;;;;;7.82;5.40;;;;;;;15.04;100.00;99191.22;4973903;28;20042;-72
2023/09/21 04:18:35;;;;;;;6.40;5.05;;;;;;;15.01;100.00;99175.47;4972234;28;20121;-72
2023/09/21 04:21:07;;;;;;;9.30;5.53;;;;;;;15.00;100.00;99147.13;4987223;28;20067;-73
2023/09/21 04:23:47;;;;;;;12.25;5.88;;;;;;;15.12;100.00;99174.56;4948659;28;20137;-72
2023/09/21 04:26:19;;;;;;;10.57;5.35;;;;;;;15.17;100.00;99172.34;4988518;28;20050;-73
2023/09/21 04:28:49;;;;;;;7.38;5.13;;;;;;;15.18;100.00;99162.53;4977094;28;21316;-72
2023/09/21 04:31:20;;;;;;;7.53;5.20;;;;;;;15.29;100.00;99165.97;4977059;28;20042;-73
2023/09/21 04:33:49;;;;;;;9.15;5.22;;;;;;;15.31;100.00;99155.16;4951904;28;20117;-72
2023/09/21 04:36:17;;;;;;;10.10;5.30;;;;;;;15.33;100.00;99158.56;4957928;28;20046;-72
2023/09/21 04:38:48;;;;;;;6.30;4.68;;;;;;;15.34;100.00;99149.59;4967912;28;20053;-73
2023/09/21 04:41:18;;;;;;;6.93;4.78;;;;;;;15.35;100.00;99162.78;4988612;28;20278;-72
2023/09/21 04:43:48;;;;;;;8.80;5.28;;;;;;;15.36;100.00;99155.63;4973583;28;20055;-72
2023/09/21 04:46:17;;;;;;;7.43;4.90;;;;;;;15.36;100.00;99144.97;4970583;28;20433;-72
2023/09/21 04:48:45;;;;;;;7.47;5.05;;;;;;;15.40;100.00;99146.41;4961058;28;20114;-72
2023/09/21 04:51:16;;;;;;;7.70;4.97;;;;;;;15.37;100.00;99138.66;4955964;28;20146;-72
2023/09/21 04:53:45;;;;;;;7.97;4.97;;;;;;;15.44;100.00;99143.31;4972499;28;20050;-72
2023/09/21 04:56:13;;;;;;;6.15;4.60;;;;;;;15.42;100.00;99133.78;4958283;28;20072;-72
2023/09/21 04:58:43;;;;;;;11.30;5.13;;;;;;;15.48;100.00;99135.03;4965436;28;20055;-73
2023/09/21 05:01:13;;;;;;;10.25;4.65;;;;;;;15.44;100.00;99129.13;4970773;28;20726;-72
2023/09/21 05:03:43;;;;;;;7.00;5.13;;;;;;;15.54;100.00;99147.84;4989989;28;20618;-72
2023/09/21 05:06:11;;;;;;;8.38;4.90;;;;;;;15.59;100.00;99150.97;4975925;28;20042;-72
2023/09/21 05:08:40;;;;;;;8.80;4.57;;;;;;;15.55;100.00;99157.56;4996785;28;20054;-72
2023/09/21 05:11:09;;;;;;;9.95;5.32;;;;;;;15.66;100.00;99174.34;4969568;28;20047;-72
2023/09/21 05:13:39;;;;;;;6.40;4.72;;;;;;;15.69;100.00;99158.06;4974524;28;20429;-72
2023/09/21 05:16:11;;;;;;;6.95;5.03;;;;;;;15.84;100.00;99176.38;4952146;28;20047;-74
2023/09/21 05:18:41;;;;;;;7.33;4.87;;;;;;;15.84;100.00;99179.06;4971583;28;20059;-72
2023/09/21 05:21:09;;;;;;;7.70;4.68;;;;;;;15.83;100.00;99174.69;4987861;28;20051;-74
2023/09/21 05:23:38;;;;;;;7.88;4.55;;;;;;;15.87;100.00;99160.09;4971950;28;20039;-73
2023/09/21 05:26:06;;;;;;;7.63;4.70;;;;;;;15.89;100.00;99166.16;4965945;28;20086;-73
2023/09/21 05:28:35;;;;;;;8.77;4.40;;;;;;;15.84;100.00;99160.38;4969491;28;20051;-72
2023/09/21 05:31:09;;;;;;;8.27;5.13;;;;;;;15.83;100.00;99161.34;4963865;28;20038;-72
2023/09/21 05:33:39;;;;;;;8.55;4.38;;;;;;;15.79;100.00;99153.59;4982628;28;20113;-73
2023/09/21 05:36:08;;;;;;;17.38;5.13;;;;;;;15.71;100.00;99150.78;4974301;28;20042;-74
2023/09/21 05:38:37;;;;;;;6.82;4.78;;;;;;;15.72;100.00;99159.63;4965994;28;20484;-73
2023/09/21 05:41:06;;;;;;;9.73;4.65;;;;;;;15.66;100.00;99152.16;4967601;28;20054;-73
2023/09/21 05:43:34;;;;;;;8.65;5.05;;;;;;;15.71;100.00;99172.13;4970374;28;20045;-73
2023/09/21 05:46:03;;;;;;;8.57;4.85;;;;;;;15.71;100.00;99169.47;4971585;28;20061;-73
2023/09/21 05:48:32;;;;;;;7.93;4.70;;;;;;;15.69;100.00;99166.06;4957961;28;20054;-73
2023/09/21 05:51:04;;;;;;;6.60;4.75;;;;;;;15.71;100.00;99160.59;4953617;28;20051;-73
2023/09/21 05:53:34;;;;;;;9.05;4.60;;;;;;;15.62;100.00;99156.06;4973091;28;20070;-73
2023/09/21 05:56:03;;;;;;;6.57;4.87;;;;;;;15.63;100.00;99158.59;4972581;28;20057;-73
2023/09/21 05:58:31;;;;;;;10.20;5.07;;;;;;;15.60;100.00;99164.19;4948599;28;20515;-72
2023/09/21 06:01:00;;;;;;;7.80;5.05;;;;;;;15.66;100.00;99160.16;4966913;28;20517;-73
2023/09/21 06:03:28;;;;;;;9.73;5.05;;;;;;;15.68;100.00;99158.19;4969347;28;20082;-72
2023/09/21 06:05:58;;;;;;;11.57;5.15;;;;;;;15.70;100.00;99170.44;4986148;28;20055;-72
2023/09/21 06:08:29;;;;;;;8.20;4.95;;;;;;;15.73;100.00;99170.19;4972408;28;20065;-73
2023/09/21 06:10:57;;;;;;;8.75;5.28;;;;;;;15.80;100.00;99170.47;4961036;28;20047;-72
2023/09/21 06:13:26;;;;;;;10.60;5.53;;;;;;;15.77;100.00;99154.72;4972162;28;20495;-73
2023/09/21 06:15:55;;;;;;;9.07;5.07;;;;;;;15.88;100.00;99167.97;4973756;28;20065;-72
2023/09/21 06:18:24;;;;;;;9.35;4.88;;;;;;;16.03;100.00;99171.97;4985764;28;20491;-73
2023/09/21 06:20:53;;;;;;;9.93;5.45;;;;;;;16.15;100.00;99172.69;4961823;28;20047;-72
2023/09/21 06:23:23;;;;;;;12.15;5.40;;;;;;;16.22;100.00;99178.31;4983650;28;20061;-72
2023/09/21 06:25:52;;;;;;;7.60;4.85;;;;;;;16.33;100.00;99181.72;4969340;28;20082;-72
2023/09/21 06:28:21;;;;;;;10.80;5.10;;;;;;;16.42;100.00;99167.53;4986459;28;20054;-73
2023/09/21 06:30:51;;;;;;;8.13;5.30;;;;;;;16.54;100.00;99172.75;4963833;28;20050;-72
2023/09/21 06:33:23;;;;;;;9.02;4.93;;;;;;;16.58;100.00;99171.47;4937473;28;20050;-73
2023/09/21 06:35:52;;;;;;;8.52;4.95;;;;;;;16.64;100.00;99171.81;4972716;28;20057;-72
2023/09/21 06:38:20;;;;;;;10.88;4.95;;;;;;;16.68;100.00;99170.56;4969472;28;20097;-71
2023/09/21 06:40:48;;;;;;;10.05;5.50;;;;;;;16.76;100.00;99173.34;4963871;28;20094;-73
2023/09/21 06:43:29;;;;;;;8.57;5.05;;;;;;;16.81;100.00;99160.41;4966764;28;20059;-72
2023/09/21 06:45:59;;;;;;;9.98;5.32;;;;;;;16.95;100.00;99169.84;4971710;28;20058;-73
2023/09/21 06:48:29;;;;;;;9.60;4.90;;;;;;;17.04;100.00;99160.09;4971500;28;20046;-72
2023/09/21 06:50:57;;;;;;;10.52;5.35;;;;;;;17.13;100.00;99157.44;4963447;28;20042;-74
2023/09/21 06:53:29;;;;;;;9.63;5.22;;;;;;;17.21;100.00;99154.03;4980547;28;20042;-72
2023/09/21 06:55:58;;;;;;;11.18;5.65;;;;;;;17.29;100.00;99148.81;4974390;28;20042;-72
2023/09/21 06:58:30;;;;;;;10.30;4.57;;;;;;;17.40;100.00;99148.63;4972452;28;20051;-72
2023/09/21 07:00:58;;;;;;;8.57;5.10;;;;;;;17.55;100.00;99146.31;4959929;28;20134;-72
2023/09/21 07:03:27;;;;;;;9.07;4.80;;;;;;;17.71;100.00;99146.56;4961988;28;20054;-71
2023/09/21 07:05:56;;;;;;;13.77;5.53;;;;;;;17.85;100.00;99137.19;4989942;28;20293;-72
2023/09/21 07:08:26;;;;;;;10.77;5.13;;;;;;;18.01;100.00;99139.22;4944553;28;20054;-72
2023/09/21 07:10:54;;;;;;;13.82;5.60;;;;;;;18.12;100.00;99133.66;4949308;28;20519;-72
2023/09/21 07:13:22;;;;;;;13.35;5.88;;;;;;;18.26;100.00;99132.34;4977583;28;20491;-72
2023/09/21 07:15:54;;;;;;;13.82;5.93;;;;;;;18.34;100.00;99127.03;4986379;28;20057;-72
2023/09/21 07:18:22;;;;;;;11.45;5.00;;;;;;;18.40;100.00;99142.53;4983648;28;20050;-72
2023/09/21 07:20:50;;;;;;;12.98;5.47;;;;;;;18.44;100.00;99139.38;4947481;28;20480;-73
2023/09/21 07:23:18;;;;;;;8.52;4.75;;;;;;;18.52;100.00;99134.09;4956744;28;20515;-72
2023/09/21 07:25:46;;;;;;;9.38;4.70;;;;;;;18.65;100.00;99140.94;4987262;28;20097;-73
2023/09/21 07:28:14;;;;;;;16.30;5.80;;;;;;;18.70;100.00;99135.97;4955234;28;20053;-73
2023/09/21 07:30:42;;;;;;;12.52;5.40;;;;;;;18.74;100.00;99127.44;4962316;28;20465;-73
2023/09/21 07:33:12;;;;;;;10.70;5.00;;;;;;;18.82;100.00;99124.84;4988653;28;20034;-74
2023/09/21 07:35:41;;;;;;;13.53;4.80;;;;;;;19.00;100.00;99121.28;4982533;28;20121;-71
2023/09/21 07:38:08;;;;;;;10.48;4.80;;;;;;;19.15;100.00;99123.25;4988204;28;20561;-71
2023/09/21 07:40:36;;;;;;;13.68;4.75;;;;;;;19.22;100.00;99101.97;4977781;28;20049;-72
2023/09/21 07:43:06;;;;;;;10.85;4.40;;;;;;;19.40;100.00;99112.66;4957547;28;20561;-72
2023/09/21 07:45:34;;;;;;;9.57;4.20;;;;;;;19.47;100.00;99111.03;4964840;28;20128;-72
2023/09/21 07:48:02;;;;;;;7.75;4.32;;;;;;;19.54;100.00;99109.41;4985279;28;20042;-72
2023/09/21 07:50:36;;;;;;;9.85;4.28;;;;;;;19.67;100.00;99128.63;4978680;28;20406;-72
2023/09/21 07:53:04;;;;;;;9.82;4.30;;;;;;;19.60;100.00;99130.25;4987857;28;20527;-72
2023/09/21 07:55:34;;;;;;;6.95;4.60;;;;;;;19.46;100.00;99128.97;4956144;28;20050;-72
2023/09/21 07:58:01;;;;;;;11.68;4.38;;;;;;;19.30;100.00;99130.72;4968606;28;20472;-73
2023/09/21 08:00:29;;;;;;;8.90;4.65;;;;;;;19.15;100.00;99122.41;4981914;28;20047;-71
2023/09/21 08:02:59;;;;;;;11.93;4.18;;;;;;;19.16;100.00;99124.94;4973691;28;20067;-73
2023/09/21 08:05:30;;;;;;;7.80;4.38;;;;;;;19.20;100.00;99126.28;4958924;28;20058;-72
2023/09/21 08:08:00;;;;;;;9.65;3.80;;;;;;;19.21;100.00;99121.75;4967363;28;20043;-72
2023/09/21 08:10:32;;;;;;;5.03;3.53;;;;;;;19.06;100.00;99121.50;4984137;28;20149;-72
2023/09/21 08:13:03;;;;;;;7.00;3.55;;;;;;;18.91;100.00;99120.38;4991189;28;20172;-72
2023/09/21 08:15:32;;;;;;;5.70;3.65;;;;;;;18.82;100.00;99126.69;4976640;28;20054;-72
2023/09/21 08:18:00;;;;;;;6.43;4.07;;;;;;;18.73;100.00;99127.63;4992602;28;20177;-72
2023/09/21 08:20:29;;;;;;;8.88;4.20;;;;;;;18.74;100.00;99124.75;4950121;28;20074;-73
2023/09/21 08:22:57;;;;;;;9.55;3.75;;;;;;;18.75;100.00;99120.25;4990474;28;20058;-71
2023/09/21 08:25:26;;;;;;;10.55;3.90;;;;;;;18.79;100.00;99103.69;4974952;28;20066;-72
2023/09/21 08:27:55;;;;;;;5.53;3.50;;;;;;;18.96;100.00;99112.72;4989752;28;20047;-72
2023/09/21 08:30:25;;;;;;;7.85;3.15;;;;;;;19.10;100.00;99106.78;4970170;28;20065;-72
2023/09/21 08:32:53;;;;;;;7.43;3.83;;;;;;;19.21;100.00;99101.13;4990973;28;20047;-72
2023/09/21 08:35:25;;;;;;;6.28;3.50;;;;;;;19.28;100.00;99096.84;4977606;28;20061;-72
2023/09/21 08:37:54;;;;;;;6.50;3.50;;;;;;;19.35;100.00;99093.53;4994722;28;20043;-72
2023/09/21 08:40:23;;;;;;;8.63;3.40;;;;;;;19.41;100.00;99096.38;4971335;28;20372;-73
2023/09/21 08:42:55;;;;;;;8.43;4.05;;;;;;;19.46;100.00;99102.13;4971256;28;20049;-72
2023/09/21 08:45:24;;;;;;;5.38;3.80;;;;;;;19.44;100.00;99105.97;4977239;28;20067;-72
2023/09/21 08:47:52;;;;;;;7.50;3.92;;;;;;;19.39;100.00;99097.56;4987919;28;20121;-72
2023/09/21 08:50:21;;;;;;;6.68;3.60;;;;;;;19.33;100.00;99092.84;4970171;28;20038;-73
2023/09/21 08:52:53;;;;;;;8.10;3.60;;;;;;;19.31;100.00;99089.47;4972636;28;20501;-72
2023/09/21 08:55:22;;;;;;;7.65;3.67;;;;;;;19.33;100.00;99087.47;4979150;28;20454;-72
2023/09/21 08:57:53;;;;;;;5.93;3.40;;;;;;;19.31;100.00;99079.56;4972088;28;20046;-72
2023/09/21 09:00:27;;;;;;;6.65;3.80;;;;;;;19.30;100.00;99072.50;4985103;28;20129;-72
2023/09/21 09:02:55;;;;;;;8.82;4.13;;;;;;;19.39;100.00;99068.84;4972219;28;20057;-72
2023/09/21 09:05:26;;;;;;;9.00;3.70;;;;;;;19.46;100.00;99063.69;4988731;28;20042;-73
2023/09/21 09:07:55;;;;;;;8.15;3.63;;;;;;;19.57;100.00;99068.81;4971908;28;20048;-73
2023/09/21 09:10:25;;;;;;;5.97;3.53;;;;;;;19.63;100.00;99059.28;4964512;28;20050;-73
2023/09/21 09:13:05;;;;;;;6.13;3.70;;;;;;;19.76;100.00;99059.66;4989066;28;20388;-73
2023/09/21 09:15:34;;;;;;;;;;;;;;;19.91;100.00;99050.81;4969980;28;20053;-72
2023/09/21 09:18:03;;;;;;;6.93;3.63;;;;;;;20.05;100.00;99051.16;4997815;28;20518;-73
2023/09/21 09:20:32;;;;;;;9.77;3.70;;;;;;;20.06;100.00;99058.22;4974445;28;20054;-72
2023/09/21 09:23:02;;;;;;;6.20;3.50;;;;;;;20.05;100.00;99051.16;4976731;28;20047;-72
2023/09/21 09:25:30;;;;;;;10.48;3.90;;;;;;;20.04;100.00;99060.25;4997917;28;20073;-73
2023/09/21 09:28:02;;;;;;;7.80;3.55;;;;;;;20.02;100.00;99051.50;4976689;28;20054;-74
2023/09/21 09:30:31;;;;;;;8.55;4.38;;;;;;;20.07;100.00;99054.53;4989634;28;20069;-72
2023/09/21 09:33:02;;;;;;;9.60;6.65;;;;;;;20.13;100.00;99040.44;4965969;28;20684;-72
2023/09/21 09:35:32;;;;;;;10.40;4.78;;;;;;;20.39;100.00;99038.50;5000476;28;20136;-72
2023/09/21 09:37:59;;;;;;;6.53;4.10;;;;;;;20.69;100.00;99034.28;4981021;28;20050;-73
2023/09/21 09:40:30;;;;;;;8.57;4.15;;;;;;;20.98;100.00;99031.88;4999487;28;20050;-72
2023/09/21 09:43:01;;;;;;;7.38;4.22;;;;;;;21.20;100.00;99016.06;4994894;28;20046;-72
2023/09/21 09:45:31;;;;;;;5.85;3.78;;;;;;;21.39;100.00;99017.50;4983520;28;20127;-72
2023/09/21 09:48:01;;;;;;;10.40;4.10;;;;;;;21.57;100.00;99010.00;4965885;28;20073;-72
2023/09/21 09:50:33;;;;;;;7.57;3.75;;;;;;;21.72;95.93;99016.34;4999931;28;20107;-72
2023/09/21 09:53:06;;;;;;;5.53;3.38;;;;;;;21.94;93.18;99018.22;4963375;28;20151;-73
2023/09/21 09:55:36;;;;;;;8.57;4.00;;;;;;;22.13;95.28;99011.56;5003951;28;20048;-72
2023/09/21 09:58:08;;;;;;;7.82;4.05;;;;;;;22.11;92.77;99010.06;5003349;28;20062;-73
2023/09/21 10:00:39;;;;;;;11.32;4.45;;;;;;;21.93;92.04;99002.22;4974348;28;20045;-74
2023/09/21 10:03:08;;;;;;;;;;;;;;;21.92;93.43;99006.78;5001124;28;20901;-72
2023/09/21 10:05:37;;;;;;;10.98;4.78;;;;;;;21.85;92.76;99000.44;5024642;28;19922;-72
2023/09/21 10:08:07;;;;;;;9.82;4.05;;;;;;;21.73;94.19;98996.44;4988505;28;20047;-72
2023/09/21 10:10:42;;;;;;;8.90;4.35;;;;;;;21.85;91.52;98988.81;4992097;28;20552;-73
2023/09/21 10:13:12;;;;;;;10.98;3.78;;;;;;;22.08;89.94;98991.53;4989215;28;20455;-72
2023/09/21 10:15:43;;;;;;;10.52;3.85;;;;;;;22.33;89.00;98971.47;5003207;28;20049;-71
2023/09/21 10:18:29;;;;;;;12.40;4.38;;;;;;;22.53;84.59;98974.50;4950622;28;20050;-74
2023/09/21 10:21:12;;;;;;;8.90;4.20;;;;;;;22.75;84.52;98979.00;4976964;28;20526;-73
2023/09/21 10:24:01;;;;;;;6.60;3.72;;;;;;;22.87;83.02;98964.06;5001798;28;20057;-75
2023/09/21 10:26:33;;;;;;;7.85;3.80;;;;;;;23.01;82.82;98963.22;5002310;28;20126;-72
2023/09/21 10:29:06;;;;;;;10.43;3.58;;;;;;;23.17;79.49;98964.91;4993005;28;20264;-72
2023/09/21 10:31:37;;;;;;;8.65;3.22;;;;;;;23.33;78.96;98970.09;4977981;28;20062;-73
2023/09/21 10:34:14;;;;;;;7.90;3.22;;;;;;;23.48;79.39;98964.69;4990320;28;20066;-73
2023/09/21 10:36:44;;;;;;;6.72;4.13;;;;;;;23.56;75.13;98948.41;4996567;28;20101;-74
2023/09/21 10:39:31;;;;;;;10.05;4.40;;;;;;;23.64;73.97;98945.56;4989300;28;20038;-75
2023/09/21 10:42:29;;;;;;;7.95;3.85;;;;;;;23.66;72.55;98942.69;4981258;28;20045;-72
2023/09/21 10:45:10;;;;;;;6.90;3.42;;;;;;;23.73;73.81;98951.72;5001421;28;20109;-73
2023/09/21 10:47:47;;;;;;;5.97;3.35;;;;;;;23.71;72.20;98943.78;4982986;28;20050;-73
2023/09/21 10:50:18;;;;;;;5.35;3.00;;;;;;;23.69;72.12;98936.91;4989473;28;20460;-72
2023/09/21 10:52:57;;;;;;;6.00;2.90;;;;;;;23.67;74.36;98944.34;4990875;28;20048;-73
2023/09/21 10:55:25;;;;;;;6.40;3.17;;;;;;;23.65;73.97;98933.75;4997132;28;20049;-73
2023/09/21 10:58:01;;;;;;;4.60;2.88;;;;;;;23.69;72.92;98931.50;4980102;28;20053;-75
2023/09/21 11:00:33;;;;;;;5.82;3.08;;;;;;;23.77;72.92;98937.59;4980645;28;20092;-72
2023/09/21 11:03:02;;;;;;;3.47;2.85;;;;;;;23.86;74.09;98934.78;4990136;28;20046;-73
2023/09/21 11:05:31;;;;;;;6.10;3.63;;;;;;;23.90;74.57;98933.38;4986029;28;20062;-72
2023/09/21 11:08:00;;;;;;;7.32;3.60;;;;;;;23.88;75.65;98936.28;5000541;28;20035;-74
2023/09/21 11:10:32;;;;;;;4.65;3.05;;;;;;;23.87;78.16;98941.88;4985529;28;20046;-73
2023/09/21 11:13:00;;;;;;;4.72;3.42;;;;;;;23.74;78.02;98923.66;4973280;28;20209;-74
2023/09/21 11:15:32;;;;;;;6.65;3.78;;;;;;;23.63;78.82;98926.84;4987259;28;20077;-72
2023/09/21 11:18:05;;;;;;;4.95;3.65;;;;;;;23.53;79.60;98931.72;4945770;28;20046;-72
2023/09/21 11:20:33;;;;;;;4.40;3.42;;;;;;;23.39;81.63;98920.75;4987231;28;20126;-73
2023/09/21 11:23:03;;;;;;;5.90;3.10;;;;;;;23.40;83.70;98916.16;4979746;28;20061;-72
2023/09/21 11:25:31;;;;;;;8.00;3.30;;;;;;;23.38;83.52;98908.25;4994402;28;20054;-72
2023/09/21 11:28:00;;;;;;;6.60;3.60;;;;;;;23.43;83.68;98910.41;4960118;28;20136;-72
2023/09/21 11:30:31;;;;;;;6.05;2.97;;;;;;;23.51;83.90;98906.72;4960598;28;20046;-73
2023/09/21 11:32:59;;;;;;;;;;;;;;;23.55;82.03;98900.78;4958553;28;20050;-71
2023/09/21 11:35:31;;;;;;;7.20;2.75;;;;;;;23.58;80.76;98891.47;5008973;28;19921;-72
2023/09/21 11:37:59;;;;;;;5.22;3.20;;;;;;;23.61;80.33;98891.91;4990549;28;20042;-72
2023/09/21 11:40:27;;;;;;;4.70;3.17;;;;;;;23.60;80.66;98882.16;4974074;28;20046;-73